Time;durP1;ratioP1;P1;durP2;ratioP2;P2;SDS_P1;SDS_P2;PMS_P1;PMS_P2;Temp;Humidity;BMP_temperature;BMP_pressure;BME280_temperature;BME280_humidity;BME280_pressure;Samples;Min_cycle;Max_cycle;Signal;HPM_P1;HPM_P2
2021/03/24 00:00:11;;;;;;;10.60;5.70;;;;;;;-2.41;54.32;99980.31;5012643;28;20116;-63
2021/03/24 00:02:37;;;;;;;12.20;5.57;;;;;;;-2.41;53.98;99980.31;5012138;28;20026;-61
2021/03/24 00:05:08;;;;;;;10.32;5.03;;;;;;;-2.47;54.60;99969.09;5010576;28;20088;-63
2021/03/24 00:07:33;;;;;;;12.82;6.28;;;;;;;-2.51;54.57;99962.19;5011797;28;20033;-62
2021/03/24 00:09:59;;;;;;;9.32;5.40;;;;;;;-2.53;54.00;99958.75;5012329;28;20391;-62
2021/03/24 00:12:24;;;;;;;11.57;5.10;;;;;;;-2.47;54.55;99971.72;5011841;28;20052;-64
2021/03/24 00:14:50;;;;;;;7.20;5.03;;;;;;;-2.47;54.80;99974.34;5012061;28;20057;-61
2021/03/24 00:17:15;;;;;;;10.43;5.60;;;;;;;-2.47;54.53;99968.25;4997605;28;20030;-60
2021/03/24 00:19:40;;;;;;;22.52;5.93;;;;;;;-2.51;54.64;99961.34;5012490;28;20049;-63
2021/03/24 00:22:06;;;;;;;12.55;5.72;;;;;;;-2.50;54.71;99961.31;5012386;28;20062;-61
2021/03/24 00:24:31;;;;;;;11.10;5.75;;;;;;;-2.51;54.98;99959.56;5011749;28;20128;-62
2021/03/24 00:26:57;;;;;;;11.15;5.25;;;;;;;-2.56;54.68;99958.84;5010768;28;20050;-63
2021/03/24 00:29:22;;;;;;;15.60;5.03;;;;;;;-2.54;54.84;99975.38;5011443;28;20065;-64
2021/03/24 00:31:48;;;;;;;14.55;5.43;;;;;;;-2.55;54.45;99971.03;5010988;28;20037;-63
2021/03/24 00:34:13;;;;;;;11.45;5.18;;;;;;;-2.55;54.85;99978.91;5012099;28;20034;-62
2021/03/24 00:36:39;;;;;;;9.55;5.10;;;;;;;-2.55;54.70;99975.41;5010421;28;20033;-62
2021/03/24 00:39:04;;;;;;;11.10;4.97;;;;;;;-2.57;55.01;99979.84;5011138;28;20045;-65
2021/03/24 00:41:30;;;;;;;14.45;5.60;;;;;;;-2.68;54.84;99956.50;5012775;28;20408;-63
2021/03/24 00:43:55;;;;;;;11.63;5.53;;;;;;;-2.61;55.01;99971.19;5011323;28;20034;-65
2021/03/24 00:46:20;;;;;;;12.80;5.90;;;;;;;-2.60;55.17;99986.03;5010818;28;20501;-63
2021/03/24 00:48:46;;;;;;;11.45;5.95;;;;;;;-2.69;55.01;99965.25;5009839;28;20593;-62
2021/03/24 00:51:11;;;;;;;13.75;6.22;;;;;;;-2.78;55.39;99961.97;5011770;28;20405;-63
2021/03/24 00:53:37;;;;;;;16.23;6.85;;;;;;;-2.63;55.04;99991.34;5011448;28;20128;-62
2021/03/24 00:56:02;;;;;;;16.98;7.13;;;;;;;-2.68;55.49;99978.34;5011596;28;20450;-62
2021/03/24 00:58:28;;;;;;;22.50;9.27;;;;;;;-2.74;55.62;99978.50;5008994;28;20088;-62
2021/03/24 01:00:53;;;;;;;15.50;6.63;;;;;;;-2.68;55.25;99980.97;5010487;28;20030;-62
2021/03/24 01:03:19;;;;;;;14.75;7.18;;;;;;;-2.69;56.09;99991.47;5010946;28;20512;-62
2021/03/24 01:05:47;;;;;;;17.27;6.88;;;;;;;-2.71;55.78;99999.38;5011008;28;20559;-60
2021/03/24 01:08:19;;;;;;;15.68;6.85;;;;;;;-2.73;55.93;100001.19;5009217;28;20121;-63
2021/03/24 01:10:45;;;;;;;15.93;6.65;;;;;;;-2.74;56.16;100002.94;5011199;28;20042;-60
2021/03/24 01:13:14;;;;;;;22.55;8.20;;;;;;;-3.15;56.75;99941.84;5011586;28;20069;-60
2021/03/24 01:15:39;;;;;;;20.75;8.00;;;;;;;-2.81;56.37;100006.59;5010705;28;20512;-61
2021/03/24 01:18:05;;;;;;;17.58;7.25;;;;;;;-2.79;56.38;100017.91;5011018;28;20076;-60
2021/03/24 01:20:33;;;;;;;21.10;7.57;;;;;;;-2.81;56.61;100013.56;5009606;28;20033;-59
2021/03/24 01:22:59;;;;;;;25.35;7.90;;;;;;;-2.83;56.96;100025.84;5010748;28;20128;-61
2021/03/24 01:25:26;;;;;;;18.73;7.85;;;;;;;-2.85;56.79;100015.44;5010785;28;20049;-60
2021/03/24 01:27:53;;;;;;;15.10;7.45;;;;;;;-3.05;56.92;99989.66;5010582;28;20041;-63
2021/03/24 01:30:21;;;;;;;21.88;8.50;;;;;;;-2.89;57.24;100019.84;5005887;28;20037;-59
2021/03/24 01:32:47;;;;;;;24.00;7.90;;;;;;;-2.91;57.46;100032.13;5010851;28;20121;-59
2021/03/24 01:35:14;;;;;;;17.45;8.00;;;;;;;-2.96;57.04;100020.03;5011309;28;20041;-60
2021/03/24 01:37:40;;;;;;;14.82;7.75;;;;;;;-2.96;57.50;100020.91;5010618;28;20046;-60
2021/03/24 01:40:09;;;;;;;21.50;8.38;;;;;;;-2.98;57.58;100037.53;5008650;28;20053;-60
2021/03/24 01:42:35;;;;;;;18.42;7.97;;;;;;;-2.99;57.62;100039.31;5006840;28;20120;-59
2021/03/24 01:45:15;;;;;;;16.65;7.90;;;;;;;-2.99;58.44;100036.69;5010460;28;20482;-59
2021/03/24 01:47:43;;;;;;;15.77;8.00;;;;;;;-3.04;57.54;100031.53;5010619;28;20326;-62
2021/03/24 01:50:15;;;;;;;20.60;7.80;;;;;;;-3.05;58.55;100037.69;5009452;28;20057;-64
2021/03/24 01:52:42;;;;;;;20.02;7.88;;;;;;;-3.07;57.63;100033.34;5012280;28;20378;-60
2021/03/24 01:55:09;;;;;;;21.60;7.65;;;;;;;-3.07;58.15;100049.94;5014017;28;20037;-60
2021/03/24 01:57:37;;;;;;;19.05;7.45;;;;;;;-3.24;58.01;100010.13;5006820;28;20413;-61
2021/03/24 02:00:10;;;;;;;15.75;7.78;;;;;;;-3.08;58.52;100032.50;5009089;28;20042;-58
2021/03/24 02:02:36;;;;;;;13.90;6.95;;;;;;;-3.09;58.02;100033.41;5007795;28;20037;-61
2021/03/24 02:05:03;;;;;;;18.50;7.57;;;;;;;-3.08;57.86;100035.13;5004130;28;20095;-60
2021/03/24 02:07:37;;;;;;;18.33;7.82;;;;;;;-3.07;58.43;100041.22;5010150;28;20116;-61
2021/03/24 02:10:22;;;;;;;10.48;5.35;;;;;;;-3.20;58.64;100003.94;5010410;28;20046;-61
2021/03/24 02:12:56;;;;;;;16.80;7.30;;;;;;;-3.07;58.61;100039.47;5005254;28;20049;-60
2021/03/24 02:15:27;;;;;;;14.07;7.27;;;;;;;-3.19;58.01;100039.72;5009140;28;20033;-61
2021/03/24 02:17:53;;;;;;;20.17;7.93;;;;;;;-3.26;57.76;100028.50;5009383;28;20071;-61
2021/03/24 02:20:25;;;;;;;16.60;7.80;;;;;;;-3.15;58.65;100045.75;5009360;28;20125;-61
2021/03/24 02:22:58;;;;;;;20.58;8.10;;;;;;;-3.64;58.89;99969.94;5008112;28;20049;-61
2021/03/24 02:25:32;;;;;;;16.92;7.63;;;;;;;-3.17;58.09;100051.00;5009545;28;20045;-61
2021/03/24 02:28:02;;;;;;;18.05;7.65;;;;;;;-3.25;58.52;100045.94;5008068;28;20037;-61
2021/03/24 02:30:34;;;;;;;15.95;7.97;;;;;;;-3.37;58.88;100027.84;5008615;28;20104;-61
2021/03/24 02:33:13;;;;;;;14.70;8.68;;;;;;;-3.21;59.18;100059.81;5007400;28;20049;-61
2021/03/24 02:35:43;;;;;;;14.93;7.63;;;;;;;-3.21;58.95;100054.59;5009755;28;20034;-60
2021/03/24 02:38:10;;;;;;;15.48;7.95;;;;;;;-3.30;58.76;100039.91;5009730;28;20456;-60
2021/03/24 02:40:36;;;;;;;16.67;8.13;;;;;;;-3.25;58.95;100048.56;5009109;28;20088;-59
2021/03/24 02:43:03;;;;;;;18.83;8.05;;;;;;;-3.27;58.97;100057.34;5005645;28;20798;-59
2021/03/24 02:45:32;;;;;;;17.30;8.52;;;;;;;-3.30;58.87;100046.94;5006934;28;20069;-61
2021/03/24 02:48:06;;;;;;;14.15;7.28;;;;;;;-3.30;59.30;100046.94;5009555;28;20040;-60
2021/03/24 02:50:33;;;;;;;19.13;7.65;;;;;;;-3.33;59.12;100045.22;5009237;28;20037;-61
2021/03/24 02:53:00;;;;;;;14.55;7.45;;;;;;;-3.29;58.89;100049.50;5009418;28;20042;-60
2021/03/24 02:55:27;;;;;;;14.68;7.40;;;;;;;-3.29;59.16;100049.50;5008906;28;20062;-63
2021/03/24 02:57:53;;;;;;;14.73;6.95;;;;;;;-3.30;58.74;100049.53;5009499;28;20129;-63
2021/03/24 03:00:20;;;;;;;15.23;7.00;;;;;;;-3.30;59.14;100055.63;5009255;28;20462;-58
2021/03/24 03:02:51;;;;;;;15.43;7.40;;;;;;;-3.30;59.44;100049.53;5008911;28;20030;-62
2021/03/24 03:05:30;;;;;;;14.38;7.07;;;;;;;-3.30;59.59;100058.25;5007081;28;20128;-63
2021/03/24 03:08:05;;;;;;;16.30;7.20;;;;;;;-3.38;59.86;100045.31;5006340;28;20037;-59
2021/03/24 03:10:41;;;;;;;13.95;7.20;;;;;;;-3.26;59.20;100070.38;5009448;28;20401;-61
2021/03/24 03:13:16;;;;;;;16.65;7.18;;;;;;;-3.25;59.50;100066.03;5008785;28;20485;-60
2021/03/24 03:15:44;;;;;;;;;;;;;;;-3.10;58.72;100076.19;5007661;28;20049;-59
2021/03/24 03:18:23;;;;;;;12.52;6.45;;;;;;;-3.15;58.59;100085.03;5009573;28;19925;-61
2021/03/24 03:20:54;;;;;;;17.17;6.95;;;;;;;-3.21;58.78;100092.13;5008884;28;20064;-59
2021/03/24 03:23:23;;;;;;;14.15;6.90;;;;;;;-3.22;59.06;100072.06;5009026;28;20125;-59
2021/03/24 03:26:11;;;;;;;12.45;8.05;;;;;;;-3.17;59.25;100074.56;5008046;28;20038;-61
2021/03/24 03:28:37;;;;;;;14.60;6.82;;;;;;;-3.19;58.26;100076.38;5011812;28;20038;-59
2021/03/24 03:31:10;;;;;;;14.55;6.65;;;;;;;-3.26;58.69;100065.16;5011555;28;20036;-59
2021/03/24 03:33:39;;;;;;;13.07;6.72;;;;;;;-3.25;58.73;100061.66;5012406;28;20033;-57
2021/03/24 03:36:06;;;;;;;15.85;7.20;;;;;;;-3.09;58.39;100079.66;5011235;28;20469;-61
2021/03/24 03:38:34;;;;;;;17.40;6.90;;;;;;;-3.37;58.46;100033.09;5012691;28;20034;-60
2021/03/24 03:41:04;;;;;;;19.20;7.57;;;;;;;-3.03;58.68;100079.53;5012646;28;20037;-62
2021/03/24 03:43:30;;;;;;;17.75;6.72;;;;;;;-2.96;58.24;100075.03;5012489;28;20458;-62
2021/03/24 03:46:00;;;;;;;17.23;8.68;;;;;;;-2.66;58.36;100091.00;5010911;28;20040;-57
2021/03/24 03:48:25;;;;;;;16.00;7.03;;;;;;;-2.96;57.23;100012.16;5011962;28;20041;-59
2021/03/24 03:51:03;;;;;;;16.75;7.68;;;;;;;-2.47;58.04;100087.06;5012288;28;20030;-60
2021/03/24 03:53:34;;;;;;;15.13;7.47;;;;;;;-2.45;57.00;100080.03;5012495;28;20087;-60
2021/03/24 03:56:14;;;;;;;13.80;7.68;;;;;;;-2.38;57.32;100095.66;5008122;28;20038;-61
2021/03/24 03:59:04;;;;;;;15.88;7.85;;;;;;;-2.31;57.35;100086.75;5011020;28;20021;-60
2021/03/24 04:01:33;;;;;;;20.85;9.02;;;;;;;-2.42;56.73;100067.75;5012145;28;20072;-62
2021/03/24 04:04:05;;;;;;;21.08;8.50;;;;;;;-2.82;56.60;99999.63;5006186;28;20026;-60
2021/03/24 04:06:38;;;;;;;16.13;8.20;;;;;;;-1.79;55.96;100095.13;5012510;28;20124;-60
2021/03/24 04:09:07;;;;;;;18.95;8.27;;;;;;;0.17;52.58;100093.84;5010473;28;20068;-60
2021/03/24 04:11:40;;;;;;;15.38;7.95;;;;;;;2.18;47.18;100105.81;5011991;28;20045;-60
2021/03/24 04:14:08;;;;;;;19.33;8.75;;;;;;;3.78;43.38;100088.16;5008921;28;20069;-59
2021/03/24 04:16:36;;;;;;;15.75;7.18;;;;;;;5.11;41.47;100107.13;5011869;28;20076;-59
2021/03/24 04:19:05;;;;;;;14.70;7.25;;;;;;;6.18;38.52;100101.28;5010034;28;20385;-63
2021/03/24 04:21:35;;;;;;;14.57;7.10;;;;;;;7.27;36.48;100101.00;5007247;28;20416;-60
2021/03/24 04:24:09;;;;;;;13.52;7.30;;;;;;;8.43;33.26;100105.97;5011761;28;20498;-61
2021/03/24 04:26:40;;;;;;;16.33;7.75;;;;;;;9.48;31.39;100103.25;5010469;28;20492;-63
2021/03/24 04:29:11;;;;;;;12.48;6.72;;;;;;;10.46;29.63;100101.53;5010352;28;20453;-61
2021/03/24 04:31:52;;;;;;;13.65;7.22;;;;;;;11.40;28.79;100099.72;5010530;28;20069;-61
2021/03/24 04:34:19;;;;;;;10.85;7.63;;;;;;;12.22;27.88;100109.22;5009740;28;20137;-61
2021/03/24 04:36:55;;;;;;;15.40;7.90;;;;;;;12.99;25.65;100106.38;5011457;28;20080;-60
2021/03/24 04:39:31;;;;;;;18.58;9.57;;;;;;;13.76;23.46;100102.34;5009725;28;20037;-59
2021/03/24 04:41:59;;;;;;;20.63;10.25;;;;;;;14.26;25.05;100094.34;5011480;28;20044;-63
2021/03/24 04:44:30;;;;;;;13.98;10.30;;;;;;;14.98;22.51;100100.25;5010814;28;20060;-61
2021/03/24 04:47:22;;;;;;;25.63;11.68;;;;;;;15.90;20.96;100092.31;5011327;28;20081;-63
2021/03/24 04:50:01;;;;;;;17.88;10.95;;;;;;;16.69;19.64;100107.91;5009907;28;20044;-63
2021/03/24 04:52:29;;;;;;;18.20;10.90;;;;;;;17.28;20.42;100120.84;5010869;28;20042;-62
2021/03/24 04:55:02;;;;;;;15.63;10.18;;;;;;;17.90;19.02;100130.59;5011567;28;20095;-61
2021/03/24 04:57:28;;;;;;;18.02;9.85;;;;;;;18.50;19.12;100122.44;5011591;28;20132;-63
2021/03/24 05:00:04;;;;;;;20.55;10.35;;;;;;;19.14;17.43;100127.16;5009849;28;20033;-61
2021/03/24 05:02:33;;;;;;;16.65;10.07;;;;;;;19.69;17.32;100131.94;5010884;28;20038;-60
2021/03/24 05:05:04;;;;;;;17.58;9.48;;;;;;;20.14;16.39;100143.13;5011197;28;20033;-62
2021/03/24 05:08:09;;;;;;;18.75;9.63;;;;;;;21.20;14.95;100139.72;5011335;28;20052;-60
2021/03/24 05:10:35;;;;;;;13.90;8.77;;;;;;;21.46;15.99;100141.16;5006748;28;20087;-62
2021/03/24 05:13:17;;;;;;;15.40;8.85;;;;;;;22.10;14.34;100157.97;5010591;28;20046;-63
2021/03/24 05:15:53;;;;;;;16.15;9.07;;;;;;;22.35;14.16;100166.63;5009700;28;20041;-63
2021/03/24 05:18:18;;;;;;;;;;;;;;;24.38;12.33;100153.34;5009172;28;20034;-60
2021/03/24 05:21:09;;;;;;;12.75;8.27;;;;;;;24.20;14.01;100141.06;5009550;28;19928;-60
2021/03/24 05:23:36;;;;;;;52.35;9.90;;;;;;;23.93;13.31;100142.84;5007277;28;20045;-64
2021/03/24 05:26:19;;;;;;;12.05;7.07;;;;;;;24.31;11.47;100157.91;5009957;28;20033;-62
2021/03/24 05:28:48;;;;;;;15.13;7.60;;;;;;;24.40;12.06;100156.69;5009638;28;20426;-61
2021/03/24 05:31:18;;;;;;;12.45;7.50;;;;;;;24.70;11.95;100156.31;5008080;28;20087;-62
2021/03/24 05:33:48;;;;;;;14.25;8.00;;;;;;;25.12;11.75;100150.66;5023173;28;20046;-59
2021/03/24 05:36:21;;;;;;;15.75;8.38;;;;;;;25.67;11.58;100151.41;5010419;28;20029;-65
2021/03/24 05:38:49;;;;;;;11.45;7.85;;;;;;;26.17;10.71;100159.88;5009518;28;20092;-61
2021/03/24 05:41:37;;;;;;;11.68;7.65;;;;;;;26.99;9.22;100158.28;5022335;28;20065;-62
2021/03/24 05:44:27;;;;;;;24.63;7.68;;;;;;;27.12;10.09;100159.25;5006750;28;20496;-61
2021/03/24 05:47:01;;;;;;;12.77;7.32;;;;;;;27.36;9.57;100157.53;5006573;28;20073;-62
2021/03/24 05:49:36;;;;;;;11.73;7.00;;;;;;;27.88;8.79;100157.19;5005177;28;20033;-60
2021/03/24 05:52:44;;;;;;;15.73;6.82;;;;;;;28.56;8.58;100151.59;5008876;28;20034;-61
2021/03/24 05:55:48;;;;;;;11.82;6.70;;;;;;;29.02;8.55;100164.91;5003977;28;20038;-62
2021/03/24 05:58:35;;;;;;;14.23;6.28;;;;;;;29.34;8.13;100165.38;5005928;28;20120;-61
2021/03/24 06:01:13;;;;;;;14.23;6.82;;;;;;;29.56;7.23;100170.31;4998903;28;20070;-61
2021/03/24 06:03:47;;;;;;;10.77;6.70;;;;;;;29.81;7.21;100174.72;5005485;28;20579;-61
2021/03/24 06:06:35;;;;;;;11.30;7.10;;;;;;;30.56;7.68;100183.09;5005724;28;20180;-60
2021/03/24 06:09:00;;;;;;;11.50;7.07;;;;;;;30.59;7.58;100179.00;5005763;28;20037;-61
2021/03/24 06:11:46;;;;;;;9.55;6.32;;;;;;;30.78;7.47;100182.41;5004247;28;20042;-62
2021/03/24 06:14:34;;;;;;;10.32;6.30;;;;;;;31.85;7.59;100176.03;5002940;28;20044;-62
2021/03/24 06:17:21;;;;;;;9.73;6.60;;;;;;;31.42;6.50;100188.69;5007398;28;20091;-62
2021/03/24 06:20:20;;;;;;;16.35;6.80;;;;;;;32.08;6.31;100179.63;5008731;28;20050;-62
2021/03/24 06:23:23;;;;;;;11.68;7.03;;;;;;;32.54;6.29;100175.66;5006547;28;20545;-61
2021/03/24 06:26:30;;;;;;;11.98;6.88;;;;;;;32.88;5.52;100176.28;5006803;28;20124;-61
2021/03/24 06:29:35;;;;;;;12.18;6.88;;;;;;;33.16;5.93;100177.06;5006502;28;20538;-63
2021/03/24 06:32:30;;;;;;;13.13;7.53;;;;;;;33.21;6.21;100167.94;5004165;28;20053;-61
2021/03/24 06:35:15;;;;;;;10.95;6.63;;;;;;;33.52;5.54;100161.75;5007662;28;20129;-62
2021/03/24 06:37:59;;;;;;;11.68;6.82;;;;;;;33.69;5.30;100156.00;5005378;28;20091;-65
2021/03/24 06:41:00;;;;;;;15.32;6.43;;;;;;;34.60;4.72;100169.66;5007140;28;20600;-66
2021/03/24 06:43:34;;;;;;;11.45;5.95;;;;;;;34.45;4.98;100162.09;5007240;28;20507;-61
2021/03/24 06:46:18;;;;;;;15.13;6.85;;;;;;;34.64;5.12;100166.06;4984648;28;20038;-62
2021/03/24 06:49:10;;;;;;;9.02;6.53;;;;;;;35.45;4.19;100178.50;4997952;28;20041;-61
2021/03/24 06:52:10;;;;;;;15.75;7.00;;;;;;;35.98;4.11;100178.03;5008460;28;20041;-62
2021/03/24 06:55:03;;;;;;;12.68;6.93;;;;;;;36.23;4.47;100173.47;5007513;28;20049;-63
2021/03/24 06:57:50;;;;;;;10.98;7.20;;;;;;;36.22;3.71;100169.03;5007625;28;20045;-64
2021/03/24 07:00:40;;;;;;;12.73;6.85;;;;;;;36.95;3.00;100169.34;5006575;28;20441;-59
2021/03/24 07:03:27;;;;;;;11.05;6.68;;;;;;;37.06;4.07;100170.13;5011415;28;20068;-61
2021/03/24 07:06:27;;;;;;;16.40;6.80;;;;;;;36.98;4.18;100137.22;5012675;28;20056;-59
2021/03/24 07:09:12;;;;;;;15.25;6.63;;;;;;;37.37;3.76;100168.94;5004393;28;20606;-62
2021/03/24 07:12:11;;;;;;;12.30;6.35;;;;;;;37.27;3.31;100167.94;5027854;28;20394;-63
2021/03/24 07:14:50;;;;;;;13.60;6.22;;;;;;;37.17;3.13;100159.69;5012217;28;20042;-61
2021/03/24 07:17:54;;;;;;;13.07;7.05;;;;;;;37.85;3.74;100145.78;5012171;28;20062;-61
2021/03/24 07:21:02;;;;;;;14.07;7.30;;;;;;;37.96;3.90;100158.47;5012614;28;20030;-61
2021/03/24 07:23:48;;;;;;;14.50;7.00;;;;;;;37.58;3.42;100156.44;5012520;28;20044;-60
2021/03/24 07:26:24;;;;;;;11.90;6.90;;;;;;;37.25;3.54;100102.34;5012690;28;20490;-60
2021/03/24 07:28:49;;;;;;;16.58;6.15;;;;;;;37.35;3.02;100142.16;5010524;28;20505;-63
2021/03/24 07:31:35;;;;;;;11.60;6.15;;;;;;;37.58;3.00;100152.84;5012798;28;20026;-59
2021/03/24 07:34:01;;;;;;;8.13;5.18;;;;;;;37.77;3.10;100144.47;5008537;28;20560;-63
2021/03/24 07:37:00;;;;;;;10.60;5.45;;;;;;;38.44;3.05;100151.97;5011432;28;20049;-63
2021/03/24 07:39:59;;;;;;;10.90;5.25;;;;;;;38.11;3.03;100165.88;5011287;28;20037;-61
2021/03/24 07:42:57;;;;;;;11.75;5.43;;;;;;;36.64;3.34;100158.44;5010461;28;20215;-61
2021/03/24 07:45:41;;;;;;;12.27;5.82;;;;;;;36.65;3.75;100160.09;5010115;28;20050;-62
2021/03/24 07:48:18;;;;;;;13.50;5.43;;;;;;;35.99;3.98;100162.19;5007707;28;20030;-62
2021/03/24 07:50:57;;;;;;;12.07;5.70;;;;;;;34.88;3.98;100142.41;5027734;28;20398;-62
2021/03/24 07:53:41;;;;;;;13.07;5.20;;;;;;;34.33;4.20;100159.59;5012534;28;20029;-63
2021/03/24 07:56:28;;;;;;;13.75;5.20;;;;;;;33.70;4.51;100164.09;5008722;28;20560;-62
2021/03/24 07:59:11;;;;;;;9.10;4.60;;;;;;;32.89;4.66;100172.41;5006650;28;20117;-61
2021/03/24 08:02:00;;;;;;;8.02;4.85;;;;;;;31.64;5.43;100164.66;5010906;28;20037;-61
2021/03/24 08:04:44;;;;;;;11.65;4.88;;;;;;;28.91;6.38;100163.81;5009666;28;20045;-62
2021/03/24 08:07:21;;;;;;;15.95;5.65;;;;;;;25.46;8.05;100169.78;5010312;28;20052;-60
2021/03/24 08:10:01;;;;;;;14.65;5.97;;;;;;;22.59;9.68;100173.63;5008970;28;20502;-60
2021/03/24 08:12:53;;;;;;;12.27;5.90;;;;;;;20.18;11.56;100182.53;5011147;28;20037;-61
2021/03/24 08:15:24;;;;;;;9.32;4.93;;;;;;;17.46;13.49;100179.47;5006276;28;20041;-60
2021/03/24 08:18:12;;;;;;;11.65;4.88;;;;;;;15.61;15.03;100131.09;5009827;28;20053;-61
2021/03/24 08:20:40;;;;;;;17.58;5.28;;;;;;;14.25;16.32;100133.88;5000764;28;20088;-58
2021/03/24 08:23:33;;;;;;;13.30;5.57;;;;;;;12.70;17.55;100062.22;4993744;28;20060;-62
2021/03/24 08:26:12;;;;;;;15.93;5.68;;;;;;;12.37;18.61;100157.22;5011257;28;20042;-60
2021/03/24 08:29:02;;;;;;;10.40;4.22;;;;;;;11.75;19.35;100153.19;5003600;28;20060;-60
2021/03/24 08:32:05;;;;;;;9.30;3.83;;;;;;;11.17;19.12;100145.28;5009509;28;20517;-64
2021/03/24 08:34:48;;;;;;;7.78;4.15;;;;;;;10.65;19.68;100140.28;5011268;28;20045;-61
2021/03/24 08:37:41;;;;;;;5.55;3.22;;;;;;;10.37;19.94;100147.69;5011740;28;20120;-61
2021/03/24 08:40:41;;;;;;;9.95;3.83;;;;;;;9.51;20.68;100067.44;5010283;28;20048;-62
2021/03/24 08:43:09;;;;;;;7.18;2.92;;;;;;;9.65;21.06;100151.16;5003598;28;20115;-62
2021/03/24 08:45:44;;;;;;;8.63;3.00;;;;;;;9.46;21.65;100157.81;5010975;28;20026;-64
2021/03/24 08:48:16;;;;;;;9.23;3.42;;;;;;;9.38;21.65;100158.34;5010525;28;20045;-62
2021/03/24 08:50:54;;;;;;;7.80;3.63;;;;;;;9.36;22.10;100156.72;5010200;28;20041;-62
2021/03/24 08:53:36;;;;;;;8.82;3.40;;;;;;;9.21;21.99;100151.50;5010271;28;20501;-56
2021/03/24 08:56:21;;;;;;;11.52;4.20;;;;;;;9.08;22.38;100148.84;5008420;28;20030;-63
2021/03/24 08:59:30;;;;;;;15.13;6.03;;;;;;;9.16;22.28;100156.28;5008285;28;20121;-65
2021/03/24 09:02:33;;;;;;;12.55;5.05;;;;;;;9.11;22.44;100153.09;5005831;28;20037;-64
2021/03/24 09:05:10;;;;;;;12.43;5.13;;;;;;;9.03;22.84;100151.81;5003100;28;20446;-64
2021/03/24 09:08:02;;;;;;;9.95;4.85;;;;;;;8.88;23.45;100147.53;5023465;28;20537;-61
2021/03/24 09:10:51;;;;;;;12.50;4.43;;;;;;;8.74;23.42;100132.44;5008691;28;20079;-63
2021/03/24 09:13:36;;;;;;;9.68;3.78;;;;;;;8.79;23.25;100143.66;5008550;28;20062;-60
2021/03/24 09:16:22;;;;;;;11.00;3.83;;;;;;;8.64;23.31;100129.53;5006944;28;20041;-60
2021/03/24 09:18:55;;;;;;;12.32;3.58;;;;;;;8.63;23.35;100132.34;5009732;28;20041;-59
2021/03/24 09:21:28;;;;;;;8.80;3.05;;;;;;;8.66;23.09;100122.28;5010632;28;20050;-60
2021/03/24 09:24:29;;;;;;;4.97;2.75;;;;;;;8.67;22.87;100129.31;5007552;28;20038;-61
2021/03/24 09:27:19;;;;;;;7.07;2.60;;;;;;;8.83;22.57;100131.84;5001604;28;20184;-61
2021/03/24 09:29:51;;;;;;;7.45;2.88;;;;;;;8.96;23.27;100136.31;5008817;28;20030;-60
2021/03/24 09:32:50;;;;;;;6.68;2.88;;;;;;;9.09;22.70;100133.66;5008785;28;20120;-65
2021/03/24 09:35:39;;;;;;;7.07;2.83;;;;;;;9.10;22.75;100135.34;5021802;28;20050;-62
2021/03/24 09:38:10;;;;;;;10.35;2.88;;;;;;;9.08;22.58;100129.28;5009122;28;20065;-65
2021/03/24 09:40:40;;;;;;;6.47;2.70;;;;;;;8.93;22.63;100097.34;5007471;28;20042;-62
2021/03/24 09:43:31;;;;;;;6.93;2.80;;;;;;;9.28;22.70;100139.41;5008959;28;20041;-62
2021/03/24 09:46:14;;;;;;;5.50;2.53;;;;;;;9.24;22.58;100131.72;5008576;28;20073;-61
2021/03/24 09:48:51;;;;;;;6.38;2.55;;;;;;;9.16;22.56;100125.09;5005471;28;20084;-60
2021/03/24 09:51:24;;;;;;;7.45;2.70;;;;;;;9.03;22.82;100121.56;5004529;28;20103;-62
2021/03/24 09:53:50;;;;;;;8.68;3.20;;;;;;;9.08;23.00;100122.13;5009859;28;20088;-64
2021/03/24 09:56:21;;;;;;;5.40;2.60;;;;;;;9.11;23.02;100126.38;5007365;28;20105;-64
2021/03/24 09:59:18;;;;;;;8.48;2.85;;;;;;;9.10;22.81;100114.00;5007821;28;20034;-63
2021/03/24 10:01:50;;;;;;;11.20;3.03;;;;;;;9.23;22.80;100117.53;5007790;28;20584;-62
2021/03/24 10:04:28;;;;;;;8.98;3.00;;;;;;;9.26;22.71;100130.66;5007732;28;20163;-63
2021/03/24 10:07:08;;;;;;;7.00;2.90;;;;;;;9.28;22.65;100123.38;5007180;28;20092;-63
2021/03/24 10:09:56;;;;;;;9.55;2.83;;;;;;;9.36;22.90;100121.97;5008851;28;20103;-62
2021/03/24 10:12:41;;;;;;;6.32;2.65;;;;;;;9.39;22.61;100119.97;5008991;28;20745;-64
2021/03/24 10:15:10;;;;;;;9.45;3.15;;;;;;;9.29;22.51;100119.75;5007496;28;20045;-64
2021/03/24 10:17:47;;;;;;;9.75;2.60;;;;;;;9.19;22.89;100132.06;5004368;28;20045;-65
2021/03/24 10:20:20;;;;;;;7.20;2.60;;;;;;;9.16;22.77;100113.56;5006835;28;20041;-62
2021/03/24 10:22:51;;;;;;;8.32;2.55;;;;;;;9.15;22.62;100111.84;5009067;28;20050;-63
2021/03/24 10:25:26;;;;;;;11.52;2.58;;;;;;;9.05;22.52;100091.13;4990115;28;20097;-64
2021/03/24 10:27:56;;;;;;;13.63;2.97;;;;;;;9.23;23.00;100117.53;5007522;28;20075;-63
2021/03/24 10:30:28;;;;;;;8.52;2.58;;;;;;;9.18;22.92;100117.00;5006886;28;20049;-64
2021/03/24 10:33:15;;;;;;;6.50;2.70;;;;;;;9.22;22.68;100101.59;5009352;28;20037;-64
2021/03/24 10:36:02;;;;;;;8.35;2.45;;;;;;;9.23;22.85;100095.28;5009604;28;20037;-63
2021/03/24 10:38:28;;;;;;;9.00;2.90;;;;;;;9.28;22.27;100085.13;4999131;28;20038;-64
2021/03/24 10:41:12;;;;;;;6.50;2.58;;;;;;;9.36;22.47;100097.94;5024359;28;20080;-62
2021/03/24 10:43:44;;;;;;;8.32;2.40;;;;;;;9.29;22.96;100086.84;5008723;28;20294;-63
2021/03/24 10:46:38;;;;;;;5.18;2.50;;;;;;;9.41;22.98;100091.31;5007864;28;20050;-64
2021/03/24 10:49:09;;;;;;;3.95;2.40;;;;;;;9.26;22.58;100082.56;5002039;28;20071;-64
2021/03/24 10:51:38;;;;;;;7.47;2.55;;;;;;;9.28;22.43;100085.97;5009039;28;20859;-63
2021/03/24 10:54:21;;;;;;;6.90;2.20;;;;;;;9.30;22.42;100088.56;5009090;28;20030;-61
2021/03/24 10:56:59;;;;;;;10.02;2.65;;;;;;;9.28;22.58;100080.63;5008589;28;20116;-62
2021/03/24 10:59:34;;;;;;;7.63;2.88;;;;;;;9.28;22.83;100085.13;5007179;28;20046;-64
2021/03/24 11:02:18;;;;;;;6.38;3.33;;;;;;;9.19;22.73;100086.66;5004504;28;20068;-63
2021/03/24 11:05:08;;;;;;;7.57;2.90;;;;;;;9.21;23.17;100087.38;4999085;28;20040;-63
2021/03/24 11:07:52;;;;;;;8.52;2.60;;;;;;;9.30;23.06;100083.22;5009296;28;20040;-66
2021/03/24 11:10:36;;;;;;;7.80;2.78;;;;;;;9.30;22.91;100084.06;5006581;28;20034;-65
2021/03/24 11:13:10;;;;;;;7.60;2.45;;;;;;;9.15;22.83;100072.66;5004602;28;20030;-65
2021/03/24 11:16:02;;;;;;;10.18;2.80;;;;;;;9.24;22.93;100099.66;5007229;28;20124;-64
2021/03/24 11:18:44;;;;;;;9.77;2.58;;;;;;;9.17;22.83;100093.91;5007117;28;20034;-62
2021/03/24 11:21:20;;;;;;;3.10;2.25;;;;;;;9.15;22.92;100088.66;5004052;28;20069;-65
2021/03/24 11:23:51;;;;;;;8.10;2.85;;;;;;;9.09;22.99;100085.56;5006598;28;20104;-65
2021/03/24 11:26:35;;;;;;;6.20;2.78;;;;;;;9.08;23.09;100086.53;5008279;28;20030;-65
2021/03/24 11:29:05;;;;;;;8.70;2.78;;;;;;;9.08;23.02;100086.53;5008913;28;20038;-63
2021/03/24 11:31:52;;;;;;;7.13;2.17;;;;;;;9.02;22.80;100080.66;5007144;28;20032;-63
2021/03/24 11:34:41;;;;;;;8.55;2.55;;;;;;;8.96;23.01;100078.44;5005305;28;20552;-65
2021/03/24 11:37:19;;;;;;;4.60;2.05;;;;;;;8.87;23.06;100071.91;5008283;28;20034;-65
2021/03/24 11:39:52;;;;;;;7.70;2.88;;;;;;;8.73;22.85;100074.69;5007782;28;20486;-64
2021/03/24 11:42:21;;;;;;;8.50;2.25;;;;;;;8.64;22.79;100070.81;5005776;28;20135;-60
2021/03/24 11:44:51;;;;;;;5.75;2.90;;;;;;;8.53;23.07;100063.56;5008116;28;20494;-59
2021/03/24 11:47:41;;;;;;;7.13;2.67;;;;;;;8.54;23.31;100067.09;5008221;28;20881;-64
2021/03/24 11:50:24;;;;;;;3.85;2.00;;;;;;;8.52;23.11;100069.00;5009147;28;20112;-63
2021/03/24 11:52:49;;;;;;;4.88;2.03;;;;;;;8.46;22.92;100065.78;5006163;28;20069;-63
2021/03/24 11:55:33;;;;;;;4.40;2.45;;;;;;;8.53;23.06;100068.88;5011983;28;20069;-57
2021/03/24 11:58:14;;;;;;;4.05;2.15;;;;;;;8.54;23.41;100067.09;5006424;28;20401;-63
2021/03/24 12:00:39;;;;;;;6.07;2.28;;;;;;;8.58;22.97;100066.78;5009965;28;20409;-65
2021/03/24 12:03:15;;;;;;;3.58;1.83;;;;;;;8.55;23.08;100044.78;5009436;28;20042;-64
2021/03/24 12:05:53;;;;;;;3.00;1.65;;;;;;;8.65;23.47;100059.19;5010893;28;20030;-66
2021/03/24 12:08:37;;;;;;;6.28;1.85;;;;;;;8.70;23.90;100065.09;5007921;28;20069;-64